createdAt,value
2022-10-29T00:00:22.740Z,13.49
2022-10-29T00:01:22.827Z,13.44
2022-10-29T00:02:22.762Z,13.36
2022-10-29T00:03:22.958Z,13.26
2022-10-29T00:04:22.703Z,13.13
2022-10-29T00:05:22.696Z,13.01
2022-10-29T00:06:22.728Z,12.89
2022-10-29T00:07:22.725Z,12.79
2022-10-29T00:08:22.701Z,12.70
2022-10-29T00:09:22.664Z,12.62
2022-10-29T00:10:22.681Z,12.53
2022-10-29T00:11:22.648Z,12.41
2022-10-29T00:12:23.339Z,12.29
2022-10-29T00:13:22.658Z,12.19
2022-10-29T00:14:22.608Z,12.10
2022-10-29T00:15:22.642Z,12.04
2022-10-29T00:16:22.600Z,11.99
2022-10-29T00:17:22.612Z,11.95
2022-10-29T00:18:22.589Z,11.92
2022-10-29T00:19:22.638Z,11.89
2022-10-29T00:20:22.560Z,11.91
2022-10-29T00:21:22.617Z,11.96
2022-10-29T00:22:22.526Z,12.02
2022-10-29T00:23:22.595Z,12.10
2022-10-29T00:24:22.551Z,12.17
2022-10-29T00:25:22.581Z,12.20
2022-10-29T00:26:22.538Z,12.20
2022-10-29T00:27:22.505Z,12.19
2022-10-29T00:28:22.492Z,12.18
2022-10-29T00:29:22.483Z,12.18
2022-10-29T00:30:22.512Z,12.17
2022-10-29T00:31:22.516Z,12.17
2022-10-29T00:32:22.487Z,12.15
2022-10-29T00:33:22.692Z,12.11
2022-10-29T00:34:22.442Z,12.06
2022-10-29T00:35:22.492Z,11.97
2022-10-29T00:36:22.376Z,11.85
2022-10-29T00:37:22.397Z,11.74
2022-10-29T00:38:22.355Z,11.67
2022-10-29T00:39:22.414Z,11.67
2022-10-29T00:40:22.367Z,11.72
2022-10-29T00:41:22.327Z,11.80
2022-10-29T00:42:22.322Z,11.87
2022-10-29T00:43:22.324Z,11.95
2022-10-29T00:44:22.308Z,12.06
2022-10-29T00:45:22.339Z,12.18
2022-10-29T00:46:22.339Z,12.29
2022-10-29T00:47:22.270Z,12.40
2022-10-29T00:48:22.294Z,12.46
2022-10-29T00:49:22.302Z,12.49
2022-10-29T00:50:22.332Z,12.53
2022-10-29T00:51:22.226Z,12.60
2022-10-29T00:52:22.285Z,12.70
2022-10-29T00:53:22.277Z,12.80
2022-10-29T00:54:22.368Z,12.87
2022-10-29T00:55:22.208Z,12.90
2022-10-29T00:56:22.246Z,12.91
2022-10-29T00:57:22.209Z,12.90
2022-10-29T00:58:22.278Z,12.87
2022-10-29T00:59:22.165Z,12.82
2022-10-29T01:00:22.186Z,12.75
2022-10-29T01:01:22.343Z,12.69
2022-10-29T01:02:22.286Z,12.64
2022-10-29T01:03:22.204Z,12.61
2022-10-29T01:04:22.160Z,12.61
2022-10-29T01:05:22.248Z,12.62
2022-10-29T01:06:22.104Z,12.63
2022-10-29T01:07:22.108Z,12.62
2022-10-29T01:08:22.086Z,12.61
2022-10-29T01:09:22.124Z,12.62
2022-10-29T01:10:22.044Z,12.64
2022-10-29T01:11:22.096Z,12.67
2022-10-29T01:12:22.137Z,12.68
2022-10-29T01:13:22.126Z,12.69
2022-10-29T01:14:22.025Z,12.69
2022-10-29T01:15:22.036Z,12.69
2022-10-29T01:16:21.986Z,12.71
2022-10-29T01:17:22.121Z,12.72
2022-10-29T01:18:22.025Z,12.72
2022-10-29T01:19:22.118Z,12.71
2022-10-29T01:20:21.941Z,12.70
2022-10-29T01:21:21.936Z,12.70
2022-10-29T01:22:22.023Z,12.70
2022-10-29T01:23:21.945Z,12.70
2022-10-29T01:24:21.908Z,12.71
2022-10-29T01:25:21.929Z,12.74
2022-10-29T01:26:21.953Z,12.77
2022-10-29T01:27:21.916Z,12.77
2022-10-29T01:28:21.902Z,12.77
2022-10-29T01:29:21.861Z,12.80
2022-10-29T01:30:21.928Z,12.85
2022-10-29T01:31:21.829Z,12.91
2022-10-29T01:32:21.864Z,12.96
2022-10-29T01:33:21.891Z,13.00
2022-10-29T01:34:21.821Z,13.03
2022-10-29T01:35:21.804Z,13.06
2022-10-29T01:36:21.823Z,13.12
2022-10-29T01:37:21.821Z,13.17
2022-10-29T01:38:21.756Z,13.20
2022-10-29T01:39:21.815Z,13.21
2022-10-29T01:40:21.787Z,13.21
2022-10-29T01:41:21.739Z,13.19
2022-10-29T01:42:21.748Z,13.16
2022-10-29T01:43:21.763Z,13.14
2022-10-29T01:44:21.793Z,13.12
2022-10-29T01:45:21.705Z,13.10
2022-10-29T01:46:21.821Z,13.08
2022-10-29T01:47:21.694Z,13.04
2022-10-29T01:48:21.678Z,13.01
2022-10-29T01:49:21.700Z,13.00
2022-10-29T01:50:21.637Z,13.01
2022-10-29T01:51:21.648Z,13.01
2022-10-29T01:52:21.668Z,13.02
2022-10-29T01:53:21.612Z,13.05
2022-10-29T01:54:21.673Z,13.08
2022-10-29T01:55:21.589Z,13.11
2022-10-29T01:56:21.634Z,13.13
2022-10-29T01:57:21.581Z,13.15
2022-10-29T01:58:21.677Z,13.16
2022-10-29T01:59:35.382Z,13.17
2022-10-29T02:00:21.565Z,13.18
2022-10-29T02:01:21.602Z,13.18
2022-10-29T02:02:21.576Z,13.19
2022-10-29T02:03:21.571Z,13.22
2022-10-29T02:04:21.499Z,13.25
2022-10-29T02:05:21.558Z,13.28
2022-10-29T02:06:21.508Z,13.29
2022-10-29T02:07:21.569Z,13.29
2022-10-29T02:08:21.530Z,13.29
2022-10-29T02:09:21.461Z,13.28
2022-10-29T02:10:21.531Z,13.26
2022-10-29T02:11:21.437Z,13.24
2022-10-29T02:12:21.447Z,13.20
2022-10-29T02:14:20.466Z,13.14
2022-10-29T02:15:21.397Z,13.12
2022-10-29T02:16:21.461Z,13.10
2022-10-29T02:17:21.370Z,13.10
2022-10-29T02:18:21.375Z,13.11
2022-10-29T02:19:21.349Z,13.12
2022-10-29T02:20:21.390Z,13.15
2022-10-29T02:21:21.374Z,13.18
2022-10-29T02:22:21.317Z,13.20
2022-10-29T02:23:21.300Z,13.22
2022-10-29T02:24:21.302Z,13.24
2022-10-29T02:25:21.334Z,13.27
2022-10-29T02:26:21.393Z,13.30
2022-10-29T02:27:21.286Z,13.34
2022-10-29T02:29:21.247Z,13.40
2022-10-29T02:30:21.256Z,13.41
2022-10-29T02:31:21.294Z,13.41
2022-10-29T02:32:21.246Z,13.40
2022-10-29T02:33:21.212Z,13.38
2022-10-29T02:34:21.245Z,13.36
2022-10-29T02:35:21.289Z,13.33
2022-10-29T02:36:21.274Z,13.31
2022-10-29T02:37:21.155Z,13.29
2022-10-29T02:38:21.159Z,13.27
2022-10-29T02:39:21.165Z,13.25
2022-10-29T02:40:21.151Z,13.23
2022-10-29T02:41:21.179Z,13.20
2022-10-29T02:42:21.177Z,13.18
2022-10-29T02:43:21.193Z,13.17
2022-10-29T02:44:21.136Z,13.18
2022-10-29T02:45:21.112Z,13.20
2022-10-29T02:46:21.119Z,13.23
2022-10-29T02:47:21.175Z,13.25
2022-10-29T02:48:21.080Z,13.26
2022-10-29T02:49:21.040Z,13.26
2022-10-29T02:50:21.115Z,13.26
2022-10-29T02:51:21.090Z,13.25
2022-10-29T02:52:21.010Z,13.25
2022-10-29T02:53:21.015Z,13.23
2022-10-29T02:54:21.023Z,13.20
2022-10-29T02:55:21.037Z,13.16
2022-10-29T02:56:20.988Z,13.11
2022-10-29T02:57:21.007Z,13.06
2022-10-29T02:59:20.005Z,12.96
2022-10-29T03:00:20.988Z,12.93
2022-10-29T03:01:21.044Z,12.91
2022-10-29T03:02:21.067Z,12.90
2022-10-29T03:03:20.909Z,12.90
2022-10-29T03:04:20.975Z,12.89
2022-10-29T03:05:20.917Z,12.89
2022-10-29T03:06:20.932Z,12.89
2022-10-29T03:07:20.970Z,12.91
2022-10-29T03:08:20.928Z,12.93
2022-10-29T03:09:20.850Z,12.95
2022-10-29T03:10:20.904Z,12.96
2022-10-29T03:11:20.865Z,12.96
2022-10-29T03:12:20.816Z,12.96
2022-10-29T03:13:20.828Z,12.95
2022-10-29T03:14:20.824Z,12.94
2022-10-29T03:15:20.785Z,12.93
2022-10-29T03:16:20.851Z,12.90
2022-10-29T03:17:20.771Z,12.87
2022-10-29T03:18:20.803Z,12.84
2022-10-29T03:19:20.731Z,12.82
2022-10-29T03:20:20.742Z,12.82
2022-10-29T03:21:20.748Z,12.83
2022-10-29T03:22:20.809Z,12.84
2022-10-29T03:23:20.709Z,12.86
2022-10-29T03:24:20.747Z,12.87
2022-10-29T03:25:20.713Z,12.88
2022-10-29T03:26:20.676Z,12.90
2022-10-29T03:27:20.727Z,12.90
2022-10-29T03:28:20.683Z,12.88
2022-10-29T03:29:20.670Z,12.86
2022-10-29T03:30:20.657Z,12.83
2022-10-29T03:31:20.630Z,12.81
2022-10-29T03:32:20.685Z,12.79
2022-10-29T03:33:20.636Z,12.78
2022-10-29T03:34:20.605Z,12.76
2022-10-29T03:35:20.646Z,12.74
2022-10-29T03:36:20.667Z,12.72
2022-10-29T03:37:20.641Z,12.69
2022-10-29T03:38:20.555Z,12.66
2022-10-29T03:39:20.557Z,12.63
2022-10-29T03:40:20.550Z,12.61
2022-10-29T03:41:20.513Z,12.58
2022-10-29T03:42:20.574Z,12.56
2022-10-29T03:43:20.498Z,12.55
2022-10-29T03:44:20.510Z,12.53
2022-10-29T03:45:20.478Z,12.53
2022-10-29T03:46:20.496Z,12.53
2022-10-29T03:47:20.521Z,12.52
2022-10-29T03:48:20.465Z,12.50
2022-10-29T03:49:20.476Z,12.49
2022-10-29T03:50:20.431Z,12.49
2022-10-29T03:51:20.422Z,12.50
2022-10-29T03:52:20.499Z,12.51
2022-10-29T03:53:20.400Z,12.52
2022-10-29T03:54:20.401Z,12.51
2022-10-29T03:55:20.416Z,12.50
2022-10-29T03:56:20.394Z,12.49
2022-10-29T03:57:20.365Z,12.48
2022-10-29T03:58:20.403Z,12.47
2022-10-29T03:59:20.379Z,12.46
2022-10-29T04:00:20.343Z,12.44
2022-10-29T04:01:20.589Z,12.43
2022-10-29T04:02:20.480Z,12.41
2022-10-29T04:03:20.296Z,12.40
2022-10-29T04:04:20.337Z,12.38
2022-10-29T04:05:20.272Z,12.37
2022-10-29T04:06:20.304Z,12.36
2022-10-29T04:07:20.288Z,12.34
2022-10-29T04:08:20.263Z,12.32
2022-10-29T04:09:20.331Z,12.30
2022-10-29T04:10:20.346Z,12.28
2022-10-29T04:11:20.263Z,12.26
2022-10-29T04:12:20.247Z,12.24
2022-10-29T04:13:20.219Z,12.22
2022-10-29T04:14:20.259Z,12.20
2022-10-29T04:15:20.266Z,12.18
2022-10-29T04:16:20.168Z,12.16
2022-10-29T04:17:20.173Z,12.14
2022-10-29T04:18:20.185Z,12.13
2022-10-29T04:19:20.165Z,12.13
2022-10-29T04:20:45.392Z,12.16
2022-10-29T04:28:42.531Z,12.64
2022-10-29T04:29:20.050Z,12.64
2022-10-29T04:30:20.098Z,12.64
2022-10-29T04:31:20.083Z,12.63
2022-10-29T04:32:20.030Z,12.62
2022-10-29T04:33:19.999Z,12.61
2022-10-29T04:34:19.978Z,12.61
2022-10-29T04:35:19.982Z,12.61
2022-10-29T04:36:19.968Z,12.60
2022-10-29T04:37:20.204Z,12.60
2022-10-29T04:38:20.068Z,12.59
2022-10-29T04:39:22.629Z,12.59
2022-10-29T04:40:20.281Z,12.59
2022-10-29T04:41:24.593Z,12.60
2022-10-29T04:42:43.753Z,12.60
2022-10-29T04:44:25.728Z,12.60
2022-10-29T04:44:34.038Z,12.59
2022-10-29T04:45:47.830Z,12.58
2022-10-29T04:46:31.047Z,12.57
2022-10-29T04:47:50.404Z,12.55
2022-10-29T04:48:24.945Z,12.54
2022-10-29T04:49:25.017Z,12.53
2022-10-29T04:50:26.785Z,12.52
2022-10-29T04:51:38.778Z,12.51
2022-10-29T04:52:24.919Z,12.50
2022-10-29T04:53:24.882Z,12.50
2022-10-29T04:54:24.853Z,12.50
2022-10-29T04:55:24.893Z,12.49
2022-10-29T04:56:24.850Z,12.49
2022-10-29T04:57:24.959Z,12.48
2022-10-29T04:58:36.697Z,12.49
2022-10-29T04:59:24.993Z,12.50
2022-10-29T05:00:24.817Z,12.52
2022-10-29T05:01:25.121Z,12.54
2022-10-29T05:02:24.842Z,12.56
2022-10-29T05:03:24.787Z,12.57
2022-10-29T05:04:24.793Z,12.58
2022-10-29T05:05:24.775Z,12.59
2022-10-29T05:06:24.761Z,12.60
2022-10-29T05:07:24.736Z,12.61
2022-10-29T05:08:24.817Z,12.62
2022-10-29T05:09:24.700Z,12.63
2022-10-29T05:10:24.821Z,12.63
2022-10-29T05:11:24.839Z,12.61
2022-10-29T05:12:24.747Z,12.58
2022-10-29T05:13:24.692Z,12.56
2022-10-29T05:14:24.852Z,12.52
2022-10-29T05:15:24.671Z,12.49
2022-10-29T05:16:24.672Z,12.45
2022-10-29T05:17:24.667Z,12.41
2022-10-29T05:18:24.619Z,12.38
2022-10-29T05:19:24.597Z,12.34
2022-10-29T05:20:24.594Z,12.31
2022-10-29T05:21:24.606Z,12.26
2022-10-29T05:22:24.571Z,12.19
2022-10-29T05:23:24.638Z,12.11
2022-10-29T05:24:24.740Z,12.04
2022-10-29T05:25:24.533Z,11.95
2022-10-29T05:26:24.694Z,11.87
2022-10-29T05:27:24.541Z,11.82
2022-10-29T05:28:24.553Z,11.79
2022-10-29T05:29:24.519Z,11.77
2022-10-29T05:30:24.499Z,11.75
2022-10-29T05:31:24.474Z,11.73
2022-10-29T05:32:24.488Z,11.72
2022-10-29T05:33:24.446Z,11.72
2022-10-29T05:34:24.458Z,11.73
2022-10-29T05:35:24.401Z,11.76
2022-10-29T05:36:24.523Z,11.81
2022-10-29T05:37:24.394Z,11.89
2022-10-29T05:38:24.404Z,11.99
2022-10-29T05:39:24.384Z,12.13
2022-10-29T05:40:24.525Z,12.28
2022-10-29T05:41:24.335Z,12.41
2022-10-29T05:42:24.372Z,12.55
2022-10-29T05:43:24.335Z,12.73
2022-10-29T05:44:24.462Z,12.89
2022-10-29T05:45:24.319Z,13.02
2022-10-29T05:46:24.351Z,13.15
2022-10-29T05:47:24.283Z,13.28
2022-10-29T05:48:24.281Z,13.39
2022-10-29T05:49:24.236Z,13.49
2022-10-29T05:50:24.251Z,13.57
2022-10-29T05:51:24.250Z,13.65
2022-10-29T05:52:24.279Z,13.71
2022-10-29T05:53:24.365Z,13.76
2022-10-29T05:54:24.224Z,13.81
2022-10-29T05:55:24.214Z,13.85
2022-10-29T05:56:24.251Z,13.88
2022-10-29T05:57:24.238Z,13.88
2022-10-29T05:58:24.273Z,13.85
2022-10-29T05:59:24.196Z,13.81
2022-10-29T06:00:24.185Z,13.77
2022-10-29T06:01:24.181Z,13.74
2022-10-29T06:02:24.307Z,13.72
2022-10-29T06:03:24.192Z,13.71
2022-10-29T06:04:24.192Z,13.72
2022-10-29T06:05:24.118Z,13.73
2022-10-29T06:06:24.228Z,13.73
2022-10-29T06:07:24.060Z,13.73
2022-10-29T06:08:24.092Z,13.74
2022-10-29T06:09:24.103Z,13.75
2022-10-29T06:10:24.067Z,13.76
2022-10-29T06:11:24.167Z,13.77
2022-10-29T06:12:24.022Z,13.78
2022-10-29T06:13:24.017Z,13.78
2022-10-29T06:14:24.000Z,13.77
2022-10-29T06:15:23.996Z,13.76
2022-10-29T06:16:23.977Z,13.75
2022-10-29T06:17:24.026Z,13.76
2022-10-29T06:18:23.965Z,13.76
2022-10-29T06:19:23.937Z,13.76
2022-10-29T06:20:23.971Z,13.76
2022-10-29T06:21:23.982Z,13.77
2022-10-29T06:22:23.985Z,13.79
2022-10-29T06:23:23.903Z,13.82
2022-10-29T06:24:23.920Z,13.84
2022-10-29T06:25:23.883Z,13.85
2022-10-29T06:26:23.946Z,13.85
2022-10-29T06:27:23.920Z,13.85
2022-10-29T06:28:23.928Z,13.84
2022-10-29T06:29:23.941Z,13.83
2022-10-29T06:30:23.857Z,13.82
2022-10-29T06:31:23.879Z,13.83
2022-10-29T06:32:23.816Z,13.84
2022-10-29T06:33:23.827Z,13.84
2022-10-29T06:34:23.811Z,13.85
2022-10-29T06:35:23.906Z,13.85
2022-10-29T06:36:23.892Z,13.85
2022-10-29T06:37:23.843Z,13.84
2022-10-29T06:38:23.821Z,13.82
2022-10-29T06:39:23.754Z,13.80
2022-10-29T06:40:23.800Z,13.77
2022-10-29T06:41:24.016Z,13.75
2022-10-29T06:42:23.848Z,13.73
2022-10-29T06:43:23.725Z,13.71
2022-10-29T06:44:23.736Z,13.68
2022-10-29T06:45:23.697Z,13.66
2022-10-29T06:46:23.694Z,13.63
2022-10-29T06:47:23.812Z,13.61
2022-10-29T06:48:23.774Z,13.59
2022-10-29T06:49:23.663Z,13.56
2022-10-29T06:50:23.631Z,13.54
2022-10-29T06:52:24.549Z,13.53
2022-10-29T06:53:23.657Z,13.53
2022-10-29T06:54:23.654Z,13.52
2022-10-29T06:55:23.662Z,13.52
2022-10-29T06:56:23.583Z,13.53
2022-10-29T06:57:23.585Z,13.54
2022-10-29T06:58:23.619Z,13.54
2022-10-29T06:59:23.554Z,13.54
2022-10-29T07:00:23.560Z,13.52
2022-10-29T07:01:25.514Z,13.51
2022-10-29T07:02:23.552Z,13.50
2022-10-29T07:03:23.505Z,13.49
2022-10-29T07:04:23.620Z,13.49
2022-10-29T07:05:23.586Z,13.48
2022-10-29T07:06:23.498Z,13.46
2022-10-29T07:08:22.473Z,13.38
2022-10-29T07:09:23.499Z,13.35
2022-10-29T07:10:23.504Z,13.33
2022-10-29T07:11:23.423Z,13.30
2022-10-29T07:12:24.974Z,13.27
2022-10-29T07:13:25.784Z,13.24
2022-10-29T07:15:00.568Z,13.22
2022-10-29T07:15:47.892Z,13.19
2022-10-29T07:16:24.524Z,13.16
2022-10-29T07:17:26.200Z,13.13
2022-10-29T07:18:24.836Z,13.10
2022-10-29T07:19:23.388Z,13.08
2022-10-29T07:20:29.505Z,13.06
2022-10-29T07:21:23.389Z,13.06
2022-10-29T07:22:29.942Z,13.06
2022-10-29T07:23:32.108Z,13.07
2022-10-29T07:24:36.021Z,13.08
2022-10-29T07:25:58.744Z,13.08
2022-10-29T07:26:23.733Z,13.08
2022-10-29T07:27:23.476Z,13.09
2022-10-29T07:28:31.775Z,13.09
2022-10-29T07:29:23.251Z,13.10
2022-10-29T07:30:23.245Z,13.10
2022-10-29T07:31:23.292Z,13.11
2022-10-29T07:32:23.248Z,13.13
2022-10-29T07:33:34.790Z,13.16
2022-10-29T07:36:00.497Z,14.35
2022-10-29T07:36:48.933Z,13.87
2022-10-29T07:37:49.411Z,13.57
2022-10-29T07:38:48.386Z,13.40
2022-10-29T07:39:48.447Z,13.32
2022-10-29T07:40:52.830Z,13.29
2022-10-29T07:41:48.302Z,13.31
2022-10-29T07:42:48.543Z,13.35
2022-10-29T07:43:49.769Z,13.40
2022-10-29T07:44:49.968Z,13.45
2022-10-29T07:45:48.359Z,13.50
2022-10-29T07:46:48.440Z,13.58
2022-10-29T07:47:50.457Z,13.67
2022-10-29T07:48:48.952Z,13.74
2022-10-29T07:49:52.321Z,13.81
2022-10-29T07:50:48.231Z,13.88
2022-10-29T07:51:48.202Z,13.94
2022-10-29T07:52:48.204Z,14.01
2022-10-29T07:53:48.158Z,14.08
2022-10-29T07:54:48.162Z,14.14
2022-10-29T07:55:52.733Z,14.18
2022-10-29T07:56:48.371Z,14.19
2022-10-29T07:57:49.831Z,14.20
2022-10-29T07:58:50.291Z,14.23
2022-10-29T07:59:52.858Z,14.24
2022-10-29T08:00:50.421Z,14.25
2022-10-29T08:01:50.364Z,14.27
2022-10-29T08:02:48.211Z,14.31
2022-10-29T08:03:48.168Z,14.35
2022-10-29T08:04:48.354Z,14.39
2022-10-29T08:05:53.701Z,14.44
2022-10-29T08:06:48.199Z,14.49
2022-10-29T08:07:48.135Z,14.55
2022-10-29T08:08:47.990Z,14.58
2022-10-29T08:09:49.037Z,14.59
2022-10-29T08:10:49.344Z,14.57
2022-10-29T08:12:48.841Z,14.52
2022-10-29T08:13:48.100Z,14.50
2022-10-29T08:14:48.093Z,14.50
2022-10-29T08:15:48.144Z,14.50
2022-10-29T08:16:48.142Z,14.52
2022-10-29T08:17:48.159Z,14.55
2022-10-29T08:18:49.678Z,14.57
2022-10-29T08:19:49.839Z,14.59
2022-10-29T08:20:48.511Z,14.60
2022-10-29T08:21:47.978Z,14.61
2022-10-29T08:22:47.988Z,14.63
2022-10-29T08:23:47.995Z,14.66
2022-10-29T08:24:47.974Z,14.69
2022-10-29T08:25:47.808Z,14.72
2022-10-29T08:26:47.844Z,14.76
2022-10-29T08:27:48.869Z,14.80
2022-10-29T08:28:47.883Z,14.85
2022-10-29T08:29:47.811Z,14.91
2022-10-29T08:30:48.057Z,14.98
2022-10-29T08:31:47.748Z,15.06
2022-10-29T08:32:48.160Z,15.14
2022-10-29T08:33:47.738Z,15.20
2022-10-29T08:34:47.742Z,15.27
2022-10-29T08:35:47.747Z,15.32
2022-10-29T08:36:47.778Z,15.38
2022-10-29T08:37:47.674Z,15.43
2022-10-29T08:38:47.703Z,15.46
2022-10-29T08:39:47.754Z,15.50
2022-10-29T08:40:53.496Z,15.56
2022-10-29T08:41:47.970Z,15.63
2022-10-29T08:42:48.191Z,15.68
2022-10-29T08:43:47.926Z,15.71
2022-10-29T08:44:47.612Z,15.74
2022-10-29T08:45:47.639Z,15.79
2022-10-29T08:46:47.995Z,15.86
2022-10-29T08:47:48.369Z,15.92
2022-10-29T08:48:48.449Z,15.95
2022-10-29T08:49:48.056Z,16.00
2022-10-29T08:50:47.918Z,16.06
2022-10-29T08:51:48.758Z,16.10
2022-10-29T08:52:58.888Z,16.11
2022-10-29T08:53:54.328Z,16.10
2022-10-29T08:54:48.640Z,16.10
2022-10-29T08:55:47.604Z,16.15
2022-10-29T08:56:47.590Z,16.20
2022-10-29T08:57:47.490Z,16.24
2022-10-29T08:58:47.551Z,16.30
2022-10-29T08:59:48.756Z,16.36
2022-10-29T09:00:49.756Z,16.42
2022-10-29T09:01:49.141Z,16.49
2022-10-29T09:02:47.524Z,16.54
2022-10-29T09:03:47.552Z,16.58
2022-10-29T09:04:47.414Z,16.61
2022-10-29T09:05:47.487Z,16.63
2022-10-29T09:06:47.414Z,16.65
2022-10-29T09:07:47.408Z,16.65
2022-10-29T09:08:47.489Z,16.64
2022-10-29T09:09:47.447Z,16.61
2022-10-29T09:10:47.860Z,16.58
2022-10-29T09:11:47.348Z,16.60
2022-10-29T09:12:47.385Z,16.63
2022-10-29T09:13:47.431Z,16.68
2022-10-29T09:14:47.325Z,16.73
2022-10-29T09:15:47.421Z,16.79
2022-10-29T09:16:47.291Z,16.87
2022-10-29T09:17:55.492Z,16.94
2022-10-29T09:18:49.035Z,17.00
2022-10-29T09:19:47.266Z,17.06
2022-10-29T09:20:47.260Z,17.12
2022-10-29T09:21:47.277Z,17.17
2022-10-29T09:22:48.665Z,17.22
2022-10-29T09:23:50.185Z,17.27
2022-10-29T09:24:47.690Z,17.30
2022-10-29T09:25:47.422Z,17.32
2022-10-29T09:26:47.731Z,17.35
2022-10-29T09:27:47.870Z,17.41
2022-10-29T09:28:49.080Z,17.48
2022-10-29T09:29:48.158Z,17.56
2022-10-29T09:30:47.382Z,17.65
2022-10-29T09:31:47.153Z,17.77
2022-10-29T09:32:47.315Z,17.86
2022-10-29T09:33:47.311Z,17.87
2022-10-29T09:34:47.246Z,17.88
2022-10-29T09:35:47.786Z,17.92
2022-10-29T09:36:47.153Z,18.00
2022-10-29T09:37:47.088Z,18.06
2022-10-29T09:38:47.279Z,18.11
2022-10-29T09:39:47.470Z,18.19
2022-10-29T09:40:47.105Z,18.28
2022-10-29T09:41:47.041Z,18.34
2022-10-29T09:42:47.066Z,18.41
2022-10-29T09:43:47.431Z,18.51
2022-10-29T09:44:49.018Z,18.61
2022-10-29T09:45:47.236Z,18.68
2022-10-29T09:46:47.037Z,18.69
2022-10-29T09:47:47.807Z,18.67
2022-10-29T09:48:48.020Z,18.64
2022-10-29T09:49:46.955Z,18.58
2022-10-29T09:50:47.116Z,18.50
2022-10-29T09:51:47.326Z,18.48
2022-10-29T09:52:47.675Z,18.54
2022-10-29T09:53:49.562Z,18.60
2022-10-29T09:54:47.449Z,18.62
2022-10-29T09:55:47.116Z,18.66
2022-10-29T09:56:50.420Z,18.70
2022-10-29T09:57:47.248Z,18.72
2022-10-29T09:58:46.955Z,18.75
2022-10-29T09:59:46.966Z,18.76
2022-10-29T10:00:46.907Z,18.72
2022-10-29T10:01:47.732Z,18.68
2022-10-29T10:02:47.369Z,18.67
2022-10-29T10:03:46.940Z,18.68
2022-10-29T10:04:46.803Z,18.70
2022-10-29T10:05:47.517Z,18.74
2022-10-29T10:06:47.496Z,18.82
2022-10-29T10:07:46.786Z,18.95
2022-10-29T10:08:47.704Z,19.06
2022-10-29T10:09:47.074Z,19.12
2022-10-29T10:10:46.883Z,19.17
2022-10-29T10:11:47.350Z,19.20
2022-10-29T10:12:50.101Z,19.22
2022-10-29T10:13:47.708Z,19.25
2022-10-29T10:14:47.885Z,19.27
2022-10-29T10:15:48.104Z,19.27
2022-10-29T10:16:46.940Z,19.30
2022-10-29T10:17:47.048Z,19.38
2022-10-29T10:18:47.055Z,19.48
2022-10-29T10:19:47.094Z,19.56
2022-10-29T10:20:47.819Z,19.65
2022-10-29T10:21:48.978Z,19.73
2022-10-29T10:22:47.127Z,19.77
2022-10-29T10:23:47.643Z,19.81
2022-10-29T10:24:47.457Z,19.86
2022-10-29T10:25:46.781Z,19.94
2022-10-29T10:26:46.618Z,20.05
2022-10-29T10:27:46.582Z,20.15
2022-10-29T10:28:46.584Z,20.25
2022-10-29T10:29:48.141Z,20.34
2022-10-29T10:30:48.283Z,20.39
2022-10-29T10:31:46.715Z,20.39
2022-10-29T10:32:46.622Z,20.38
2022-10-29T10:33:46.808Z,20.40
2022-10-29T10:34:46.578Z,20.40
2022-10-29T10:35:46.685Z,20.38
2022-10-29T10:36:46.571Z,20.36
2022-10-29T10:37:46.920Z,20.34
2022-10-29T10:38:46.554Z,20.32
2022-10-29T10:39:46.528Z,20.28
2022-10-29T10:40:46.665Z,20.26
2022-10-29T10:41:46.557Z,20.24
2022-10-29T10:42:46.505Z,20.23
2022-10-29T10:43:46.608Z,20.29
2022-10-29T10:44:46.418Z,20.39
2022-10-29T10:45:46.492Z,20.53
2022-10-29T10:46:46.434Z,20.64
2022-10-29T10:47:46.443Z,20.72
2022-10-29T10:48:46.385Z,20.78
2022-10-29T10:49:46.403Z,20.75
2022-10-29T10:50:48.065Z,20.74
2022-10-29T10:51:46.650Z,20.85
2022-10-29T10:52:46.559Z,20.95
2022-10-29T10:53:46.616Z,21.04
2022-10-29T10:54:46.999Z,21.13
2022-10-29T10:55:46.323Z,21.16
2022-10-29T10:56:46.502Z,21.17
2022-10-29T10:57:46.753Z,21.17
2022-10-29T10:58:53.805Z,21.18
2022-10-29T10:59:46.685Z,21.23
2022-10-29T11:00:46.477Z,21.33
2022-10-29T11:01:46.441Z,21.42
2022-10-29T11:02:46.266Z,21.43
2022-10-29T11:03:46.247Z,21.40
2022-10-29T11:04:46.899Z,21.38
2022-10-29T11:05:46.333Z,21.42
2022-10-29T11:06:46.449Z,21.52
2022-10-29T11:07:46.329Z,21.57
2022-10-29T11:08:46.234Z,21.61
2022-10-29T11:09:46.173Z,21.64
2022-10-29T11:10:46.169Z,21.63
2022-10-29T11:11:46.228Z,21.58
2022-10-29T11:12:47.023Z,21.57
2022-10-29T11:13:47.031Z,21.63
2022-10-29T11:14:46.252Z,21.68
2022-10-29T11:15:46.228Z,21.73
2022-10-29T11:16:46.992Z,21.77
2022-10-29T11:17:51.329Z,21.83
2022-10-29T11:18:46.557Z,21.85
2022-10-29T11:19:51.196Z,21.83
2022-10-29T11:20:47.190Z,21.84
2022-10-29T11:21:46.302Z,21.85
2022-10-29T11:22:46.098Z,21.90
2022-10-29T11:23:46.289Z,22.00
2022-10-29T11:24:46.855Z,22.10
2022-10-29T11:25:46.063Z,22.21
2022-10-29T11:26:46.193Z,22.36
2022-10-29T11:27:46.223Z,22.46
2022-10-29T11:28:46.248Z,22.49
2022-10-29T11:29:49.077Z,22.49
2022-10-29T11:30:46.031Z,22.47
2022-10-29T11:31:46.026Z,22.47
2022-10-29T11:32:45.954Z,22.52
2022-10-29T11:33:48.603Z,22.56
2022-10-29T11:34:47.807Z,22.61
2022-10-29T11:35:46.862Z,22.67
2022-10-29T11:36:46.003Z,22.71
2022-10-29T11:37:46.672Z,22.71
2022-10-29T11:38:46.375Z,22.70
2022-10-29T11:39:47.918Z,22.72
2022-10-29T11:40:46.284Z,22.80
2022-10-29T11:41:46.340Z,22.91
2022-10-29T11:42:46.227Z,23.03
2022-10-29T11:43:48.491Z,23.14
2022-10-29T11:44:46.407Z,23.21
2022-10-29T11:45:46.666Z,23.26
2022-10-29T11:46:47.903Z,23.30
2022-10-29T11:47:45.871Z,23.32
2022-10-29T11:48:46.706Z,23.33
2022-10-29T11:49:46.094Z,23.30
2022-10-29T11:50:46.694Z,23.25
2022-10-29T11:51:45.792Z,23.25
2022-10-29T11:52:45.862Z,23.27
2022-10-29T11:53:45.759Z,23.29
2022-10-29T11:54:45.760Z,23.30
2022-10-29T11:55:45.810Z,23.28
2022-10-29T11:56:46.233Z,23.23
2022-10-29T11:57:49.161Z,23.16
2022-10-29T11:58:45.757Z,23.16
2022-10-29T11:59:47.288Z,23.23
2022-10-29T12:00:46.201Z,23.32
2022-10-29T12:01:48.248Z,23.38
2022-10-29T12:02:45.770Z,23.40
2022-10-29T12:03:46.116Z,23.44
2022-10-29T12:04:45.957Z,23.47
2022-10-29T12:05:45.694Z,23.47
2022-10-29T12:06:46.628Z,23.50
2022-10-29T12:07:45.875Z,23.54
2022-10-29T12:08:45.712Z,23.56
2022-10-29T12:09:46.355Z,23.59
2022-10-29T12:10:47.153Z,23.60
2022-10-29T12:11:46.291Z,23.58
2022-10-29T12:12:47.682Z,23.53
2022-10-29T12:13:46.012Z,23.52
2022-10-29T12:14:45.646Z,23.54
2022-10-29T12:15:45.599Z,23.49
2022-10-29T12:16:45.558Z,23.44
2022-10-29T12:17:45.878Z,23.44
2022-10-29T12:18:49.538Z,23.45
2022-10-29T12:19:45.723Z,23.46
2022-10-29T12:20:48.363Z,23.46
2022-10-29T12:21:46.893Z,23.43
2022-10-29T12:22:46.948Z,23.42
2022-10-29T12:23:46.303Z,23.43
2022-10-29T12:24:45.683Z,23.44
2022-10-29T12:25:45.590Z,23.46
2022-10-29T12:26:45.800Z,23.47
2022-10-29T12:27:46.147Z,23.48
2022-10-29T12:28:45.443Z,23.53
2022-10-29T12:29:45.458Z,23.56
2022-10-29T12:30:46.142Z,23.56
2022-10-29T12:31:45.428Z,23.56
2022-10-29T12:32:45.433Z,23.55
2022-10-29T12:33:45.381Z,23.57
2022-10-29T12:34:45.376Z,23.62
2022-10-29T12:35:45.365Z,23.69
2022-10-29T12:36:45.401Z,23.73
2022-10-29T12:37:45.437Z,23.73
2022-10-29T12:38:45.342Z,23.74
2022-10-29T12:39:45.377Z,23.78
2022-10-29T12:40:45.409Z,23.85
2022-10-29T12:41:45.326Z,23.93
2022-10-29T12:42:45.445Z,24.00
2022-10-29T12:43:45.303Z,24.04
2022-10-29T12:44:45.562Z,24.06
2022-10-29T12:46:06.840Z,24.06
2022-10-29T12:46:45.294Z,24.09
2022-10-29T12:47:45.306Z,24.14
2022-10-29T12:48:45.412Z,24.19
2022-10-29T12:49:45.262Z,24.24
2022-10-29T12:50:45.276Z,24.30
2022-10-29T12:51:45.400Z,24.41
2022-10-29T12:52:45.252Z,24.52
2022-10-29T12:53:45.198Z,24.60
2022-10-29T12:54:45.178Z,24.66
2022-10-29T12:55:45.180Z,24.70
2022-10-29T12:56:47.863Z,24.74
2022-10-29T12:57:45.328Z,24.77
2022-10-29T12:58:45.147Z,24.81
2022-10-29T12:59:45.186Z,24.86
2022-10-29T13:00:45.251Z,24.93
2022-10-29T13:02:09.796Z,25.01
2022-10-29T13:02:45.388Z,25.09
2022-10-29T13:03:45.164Z,25.17
2022-10-29T13:04:45.141Z,25.23
2022-10-29T13:05:45.165Z,25.28
2022-10-29T13:06:45.079Z,25.40